Time;durP1;ratioP1;P1;durP2;ratioP2;P2;SDS_P1;SDS_P2;PMS_P1;PMS_P2;Temp;Humidity;BMP_temperature;BMP_pressure;BME280_temperature;BME280_humidity;BME280_pressure;Samples;Min_cycle;Max_cycle;Signal;HPM_P1;HPM_P2
2022/12/18 00:33:58;;;;;;;21.66;14.54;;;;;;;10.92;82.25;100900.78;12736422;22;8283481;-83
2022/12/18 01:26:20;;;;;;;24.77;14.88;;;;;;;10.98;81.40;100928.69;12195608;23;97621;-82
2022/12/18 02:26:12;;;;;;;23.27;14.02;;;;;;;10.85;82.10;100933.47;12730329;22;96887;-80
2022/12/18 02:31:50;;;;;;;22.65;14.75;;;;;;;10.88;82.24;100925.50;12665953;23;96666;-82
2022/12/18 02:37:38;;;;;;;22.30;13.70;;;;;;;10.90;82.24;100921.06;12627835;23;96848;-82
2022/12/18 02:43:23;;;;;;;;;;;;;;;;;;;;;
2022/12/18 02:55:41;;;;;;;;;;;;;;;;;;;;;
2022/12/18 03:01:37;;;;;;;19.58;12.43;;;;;;;10.96;81.64;100922.63;12545437;23;97164;-81
2022/12/18 03:07:12;;;;;;;;;;;;;;;;;;;;;
2022/12/18 03:48:01;;;;;;;;;;;;;;;;;;;;;
2022/12/18 03:53:30;;;;;;;18.92;12.90;;;;;;;11.18;81.26;100911.41;12275408;23;97771;-81
2022/12/18 03:58:41;;;;;;;19.40;13.05;;;;;;;11.19;81.29;100918.41;12632516;23;97444;-80
2022/12/18 04:03:51;;;;;;;20.45;13.35;;;;;;;11.30;81.15;100916.28;12672601;23;97293;-81
2022/12/18 04:09:11;;;;;;;20.25;13.38;;;;;;;11.23;80.70;100934.97;12673509;23;96715;-80
2022/12/18 04:14:22;;;;;;;17.45;13.02;;;;;;;11.26;81.35;100934.88;12672089;23;97116;-81
2022/12/18 04:19:28;;;;;;;15.88;11.82;;;;;;;11.22;81.19;100936.75;12673963;23;96728;-80
2022/12/18 07:40:12;;;;;;;14.23;9.73;;;;;;;10.65;81.72;100983.22;12771425;22;97399;-79
2022/12/18 07:45:16;;;;;;;14.60;9.75;;;;;;;10.72;82.19;100990.03;12735717;22;97124;-78
2022/12/18 07:50:19;;;;;;;19.73;12.10;;;;;;;10.71;82.12;101004.09;12735650;22;96783;-78
2022/12/18 07:55:24;;;;;;;21.45;12.55;;;;;;;10.76;81.37;101002.22;12731704;22;97169;-79
2022/12/18 08:00:27;;;;;;;15.17;9.90;;;;;;;10.78;80.91;101010.06;12732116;22;97309;-79
2022/12/18 08:05:30;;;;;;;13.98;9.77;;;;;;;10.88;80.43;101012.38;12735849;22;97053;-78
2022/12/18 08:10:35;;;;;;;14.73;10.32;;;;;;;10.85;80.85;101011.63;12738136;22;96947;-78
2022/12/18 08:15:38;;;;;;;14.95;10.52;;;;;;;10.94;81.01;101006.09;12733967;22;98333;-78
2022/12/18 08:20:41;;;;;;;13.32;9.88;;;;;;;10.95;80.76;101020.97;12735678;22;97661;-78
2022/12/18 08:25:46;;;;;;;14.57;9.55;;;;;;;10.92;81.35;101002.63;12737149;22;96734;-79
2022/12/18 08:30:53;;;;;;;14.32;9.15;;;;;;;10.83;81.49;101010.78;12737374;22;96612;-79
2022/12/18 08:35:56;;;;;;;14.38;9.07;;;;;;;10.96;80.65;101020.91;12737752;22;97127;-79
2022/12/18 08:41:02;;;;;;;24.15;15.77;;;;;;;10.97;81.24;101009.47;12749582;22;97516;-79
2022/12/18 08:46:05;;;;;;;13.30;8.90;;;;;;;11.10;80.36;101026.69;12800003;22;96717;-80
2022/12/18 08:51:09;;;;;;;14.50;8.32;;;;;;;11.26;79.63;101041.13;12801971;22;96769;-80
2022/12/18 08:56:14;;;;;;;12.73;8.65;;;;;;;11.41;80.09;101047.69;12800944;22;97150;-83
2022/12/18 09:01:18;;;;;;;16.58;10.50;;;;;;;11.34;80.19;101054.94;12799834;22;97072;-79
2022/12/18 09:06:38;;;;;;;14.70;9.52;;;;;;;11.36;79.99;101074.19;12798808;22;97021;-82
2022/12/18 09:11:45;;;;;;;13.38;8.82;;;;;;;11.52;79.58;101079.00;12800398;22;96583;-84
2022/12/18 09:16:53;;;;;;;11.68;7.68;;;;;;;11.66;79.23;101087.34;12800144;22;97194;-85
2022/12/18 09:21:59;;;;;;;;;;;;;;;11.81;79.41;101063.13;12802487;22;96906;-87
2022/12/18 09:27:30;;;;;;;11.88;7.13;;;;;;;11.99;78.85;101065.19;12801744;22;96863;-85
2022/12/18 09:44:25;;;;;;;11.18;6.70;;;;;;;12.26;78.15;101053.72;12793123;22;97163;-84
2022/12/18 09:49:38;;;;;;;9.80;7.00;;;;;;;12.38;77.27;101043.63;12802046;22;96956;-90
2022/12/18 09:55:23;;;;;;;;;;;;;;;;;;;;;
2022/12/18 10:00:47;;;;;;;11.30;7.43;;;;;;;12.32;77.10;101042.97;12746225;22;98322;-83
2022/12/18 10:06:05;;;;;;;9.82;6.97;;;;;;;12.55;76.15;101057.09;12801288;22;96667;-82
2022/12/18 10:11:41;;;;;;;;;;;;;;;;;;;;;
2022/12/18 10:23:24;;;;;;;7.90;6.45;;;;;;;13.28;74.75;101070.31;12660455;22;96836;-86
2022/12/18 10:29:27;;;;;;;9.20;5.93;;;;;;;13.53;74.39;101074.63;12798824;22;97130;-85
2022/12/18 10:34:47;;;;;;;10.77;6.03;;;;;;;13.73;74.55;101062.41;12783064;22;97374;-81
2022/12/18 10:40:10;;;;;;;9.02;6.30;;;;;;;13.63;73.82;101060.13;12798059;22;96679;-80
2022/12/18 10:51:43;;;;;;;10.25;5.85;;;;;;;13.60;73.63;101044.38;12768818;22;97064;-81
2022/12/18 10:56:53;;;;;;;8.73;6.03;;;;;;;13.54;73.40;101044.59;12799169;22;97219;-80
2022/12/18 11:02:44;;;;;;;6.85;5.45;;;;;;;13.69;73.33;101059.00;12799850;22;96706;-82
2022/12/18 11:07:58;;;;;;;7.63;4.90;;;;;;;13.95;72.14;101065.91;12800645;22;96855;-81
2022/12/18 11:13:21;;;;;;;6.95;4.90;;;;;;;13.98;71.16;101055.19;12800592;22;96900;-80
2022/12/18 11:18:29;;;;;;;7.40;4.30;;;;;;;14.31;70.83;101049.41;12795748;22;96732;-82
2022/12/18 11:23:53;;;;;;;8.30;4.50;;;;;;;14.40;70.37;101056.09;12799706;22;96624;-82
2022/12/18 11:29:18;;;;;;;7.65;4.95;;;;;;;14.62;70.08;101039.22;12799927;22;96979;-83
2022/12/18 11:34:31;;;;;;;9.93;4.72;;;;;;;14.70;70.17;101038.84;12798264;22;97051;-81
2022/12/18 11:39:42;;;;;;;6.85;4.80;;;;;;;14.85;69.81;101019.66;12797858;22;97111;-84
2022/12/18 11:44:54;;;;;;;8.30;4.30;;;;;;;14.96;70.22;101019.16;12798113;22;96808;-82
2022/12/18 11:50:09;;;;;;;7.82;4.57;;;;;;;15.15;69.87;101018.25;12799515;22;97259;-82
2022/12/18 11:55:32;;;;;;;12.43;4.95;;;;;;;15.45;69.33;101008.91;12798947;22;96704;-81
2022/12/18 12:00:50;;;;;;;6.47;3.70;;;;;;;15.74;68.67;100996.88;12798317;22;96761;-82
2022/12/18 12:06:09;;;;;;;5.60;3.38;;;;;;;15.86;66.98;100975.03;12798930;22;97216;-82
2022/12/18 12:11:22;;;;;;;6.22;4.07;;;;;;;16.04;67.05;100959.97;12796751;22;96686;-82
2022/12/18 12:16:35;;;;;;;6.88;3.42;;;;;;;16.13;66.11;100960.38;12797304;22;97040;-82
2022/12/18 12:21:42;;;;;;;4.43;2.15;;;;;;;16.40;64.37;100974.06;12798378;22;96887;-84
2022/12/18 12:26:56;;;;;;;5.38;2.47;;;;;;;16.70;63.65;100960.03;12798983;22;96679;-83
2022/12/18 12:32:18;;;;;;;5.30;2.35;;;;;;;16.76;62.68;100962.34;12798561;22;96678;-82
2022/12/18 12:37:41;;;;;;;6.85;2.17;;;;;;;16.90;63.73;100961.59;12798660;22;96648;-83
2022/12/18 12:48:20;;;;;;;7.22;3.47;;;;;;;17.05;64.68;100944.84;12798246;22;96779;-80
2022/12/18 12:53:29;;;;;;;5.13;3.40;;;;;;;16.77;63.79;100940.13;12797341;22;96725;-79
2022/12/18 12:58:42;;;;;;;2.40;1.15;;;;;;;16.94;61.93;100917.97;12796465;22;96636;-81
2022/12/18 13:04:05;;;;;;;11.38;7.40;;;;;;;17.00;62.11;100921.13;12795576;22;97181;-82
2022/12/18 13:16:10;;;;;;;;;;;;;;;;;;;;;
2022/12/18 13:28:14;;;;;;;2.63;1.20;;;;;;;17.32;59.34;100884.75;12793277;22;97069;-81
2022/12/18 13:34:05;;;;;;;;;;;;;;;;;;;;;
2022/12/18 13:39:39;;;;;;;2.95;1.30;;;;;;;17.76;58.79;100845.78;12795683;22;96802;-82
2022/12/18 14:02:23;;;;;;;3.75;2.15;;;;;;;17.47;59.09;100857.28;12777521;22;97924;-82
2022/12/18 14:07:42;;;;;;;2.70;1.33;;;;;;;17.63;58.10;100843.94;12800644;22;96808;-80
2022/12/18 16:55:40;;;;;;;2.97;1.30;;;;;;;15.34;65.42;100869.78;10427783;27;96621;-83
2022/12/18 17:00:52;;;;;;;2.55;1.30;;;;;;;15.34;67.63;100883.03;10399592;27;98494;-78
2022/12/18 17:05:55;;;;;;;4.68;1.55;;;;;;;15.25;67.98;100873.69;10383793;27;99484;-82
2022/12/18 17:11:10;;;;;;;3.80;2.83;;;;;;;15.21;67.90;100885.41;10394394;27;99390;-85
2022/12/18 18:37:53;;;;;;;;;;;;;;;;;;;;;
2022/12/18 21:12:39;;;;;;;;;;;;;;;;;;;;;
